Time;durP1;ratioP1;P1;durP2;ratioP2;P2;SDS_P1;SDS_P2;PMS_P1;PMS_P2;Temp;Humidity;BMP_temperature;BMP_pressure;BME280_temperature;BME280_humidity;BME280_pressure;Samples;Min_cycle;Max_cycle;Signal;HPM_P1;HPM_P2
2022/03/15 00:00:57;;;;;;;40.97;21.93;;;;;;;;;;5095301;28;20763;-73
2022/03/15 00:03:25;;;;;;;43.30;20.50;;;;;;;;;;5095048;28;20467;-73
2022/03/15 00:05:53;;;;;;;44.70;21.57;;;;;;;;;;5095175;28;20544;-73
2022/03/15 00:08:20;;;;;;;41.67;22.40;;;;;;;;;;5095157;28;20471;-73
2022/03/15 00:10:48;;;;;;;45.57;23.30;;;;;;;;;;5098469;28;20471;-73
2022/03/15 00:13:20;;;;;;;37.57;21.73;;;;;;;;;;5098413;28;20451;-72
2022/03/15 00:15:48;;;;;;;41.00;20.97;;;;;;;;;;5099879;28;20956;-74
2022/03/15 00:18:20;;;;;;;42.37;19.73;;;;;;;;;;5102425;27;20459;-73
2022/03/15 00:20:51;;;;;;;36.10;19.53;;;;;;;;;;5098443;28;20519;-74
2022/03/15 00:23:19;;;;;;;37.53;20.03;;;;;;;;;;5099430;28;20443;-73
2022/03/15 00:25:49;;;;;;;39.97;22.37;;;;;;;;;;5099150;28;20481;-72
2022/03/15 00:28:19;;;;;;;39.67;20.30;;;;;;;;;;5099357;28;20498;-73
2022/03/15 00:30:47;;;;;;;36.77;21.07;;;;;;;;;;5097322;28;20487;-73
2022/03/15 00:33:15;;;;;;;33.87;20.47;;;;;;;;;;5099509;28;20831;-73
2022/03/15 00:35:44;;;;;;;37.63;19.03;;;;;;;;;;5088460;28;20757;-73
2022/03/15 00:38:12;;;;;;;33.70;19.40;;;;;;;;;;5078768;28;20456;-73
2022/03/15 00:40:40;;;;;;;34.67;19.37;;;;;;;;;;5083300;28;20528;-74
2022/03/15 00:43:08;;;;;;;34.10;20.20;;;;;;;;;;5098795;28;20466;-73
2022/03/15 00:45:46;;;;;;;31.70;17.80;;;;;;;;;;5098402;28;20817;-74
2022/03/15 00:48:14;;;;;;;41.57;21.93;;;;;;;;;;5098711;28;20450;-73
2022/03/15 00:50:42;;;;;;;37.07;19.80;;;;;;;;;;5098030;28;20479;-73
2022/03/15 00:53:12;;;;;;;36.87;21.17;;;;;;;;;;5098529;28;20448;-73
2022/03/15 00:55:40;;;;;;;33.53;20.20;;;;;;;;;;5098767;28;20733;-73
2022/03/15 00:58:09;;;;;;;33.37;20.07;;;;;;;;;;5098734;28;20459;-72
2022/03/15 01:00:39;;;;;;;36.30;19.13;;;;;;;;;;5098362;28;20548;-73
2022/03/15 01:03:07;;;;;;;33.90;21.13;;;;;;;;;;5097899;28;20546;-72
2022/03/15 01:05:35;;;;;;;35.17;19.53;;;;;;;;;;5098122;28;20532;-72
2022/03/15 01:08:03;;;;;;;30.60;18.20;;;;;;;;;;5090751;28;20453;-73
2022/03/15 01:10:32;;;;;;;31.10;18.47;;;;;;;;;;5078467;28;20839;-73
2022/03/15 01:13:00;;;;;;;34.93;21.07;;;;;;;;;;5088920;28;20447;-73
2022/03/15 01:15:29;;;;;;;32.33;19.13;;;;;;;;;;5097439;28;20452;-73
2022/03/15 01:18:01;;;;;;;39.77;19.77;;;;;;;;;;5098285;28;20759;-73
2022/03/15 01:20:29;;;;;;;38.47;21.10;;;;;;;;;;5097581;28;20570;-73
2022/03/15 01:22:58;;;;;;;37.23;20.23;;;;;;;;;;5098974;28;20456;-73
2022/03/15 01:25:27;;;;;;;34.23;21.20;;;;;;;;;;5098287;28;20790;-73
2022/03/15 01:27:59;;;;;;;31.37;17.63;;;;;;;;;;5078731;28;20464;-73
2022/03/15 01:30:30;;;;;;;35.80;19.37;;;;;;;;;;5077866;28;20521;-73
2022/03/15 01:32:57;;;;;;;30.40;16.90;;;;;;;;;;5078195;28;20452;-73
2022/03/15 01:35:26;;;;;;;39.30;20.33;;;;;;;;;;5079129;28;20527;-73
2022/03/15 01:37:55;;;;;;;28.17;15.97;;;;;;;;;;5077940;28;20464;-74
2022/03/15 01:40:23;;;;;;;29.97;18.43;;;;;;;;;;5077310;28;21140;-74
2022/03/15 01:42:51;;;;;;;29.80;17.20;;;;;;;;;;5077117;28;20500;-73
2022/03/15 01:45:20;;;;;;;34.73;18.97;;;;;;;;;;5077668;28;20457;-73
2022/03/15 01:47:48;;;;;;;32.17;18.30;;;;;;;;;;5078904;28;20461;-74
2022/03/15 01:50:17;;;;;;;31.20;18.03;;;;;;;;;;5077484;28;20479;-73
2022/03/15 01:52:45;;;;;;;41.67;19.13;;;;;;;;;;5076746;28;20830;-74
2022/03/15 01:55:13;;;;;;;29.67;19.23;;;;;;;;;;5077016;28;20945;-73
2022/03/15 01:57:41;;;;;;;32.47;17.33;;;;;;;;;;5077245;28;20482;-73
2022/03/15 02:00:13;;;;;;;32.90;16.83;;;;;;;;;;5076983;28;20939;-73
2022/03/15 02:02:42;;;;;;;36.20;18.67;;;;;;;;;;5077228;28;20834;-73
2022/03/15 02:05:10;;;;;;;36.47;18.20;;;;;;;;;;5077066;28;20542;-73
2022/03/15 02:07:38;;;;;;;29.53;16.90;;;;;;;;;;5076811;28;20500;-73
2022/03/15 02:10:06;;;;;;;29.47;15.17;;;;;;;;;;5077521;28;20480;-73
2022/03/15 02:12:37;;;;;;;25.47;16.00;;;;;;;;;;5086105;28;20856;-73
2022/03/15 02:15:05;;;;;;;29.30;14.70;;;;;;;;;;5096641;28;20459;-74
2022/03/15 02:17:33;;;;;;;30.73;17.23;;;;;;;;;;5096518;28;21112;-74
2022/03/15 02:20:07;;;;;;;25.93;16.03;;;;;;;;;;5095751;28;20462;-73
2022/03/15 02:22:36;;;;;;;24.43;15.40;;;;;;;;;;5097724;28;20472;-74
2022/03/15 02:25:04;;;;;;;25.90;15.97;;;;;;;;;;5097116;28;20886;-74
2022/03/15 02:27:32;;;;;;;35.90;15.63;;;;;;;;;;5097256;28;20459;-74
2022/03/15 02:30:00;;;;;;;29.63;14.97;;;;;;;;;;5097110;28;20455;-74
2022/03/15 02:32:28;;;;;;;18.83;11.37;;;;;;;;;;5079967;28;20487;-73
2022/03/15 02:34:56;;;;;;;20.57;11.57;;;;;;;;;;5076485;28;20892;-74
2022/03/15 02:37:24;;;;;;;21.60;13.23;;;;;;;;;;5076615;28;20552;-73
2022/03/15 02:39:54;;;;;;;23.43;12.40;;;;;;;;;;5096608;28;20953;-73
2022/03/15 02:42:25;;;;;;;33.43;12.80;;;;;;;;;;5096819;28;20467;-73
2022/03/15 02:44:53;;;;;;;18.87;12.10;;;;;;;;;;5096454;28;20868;-73
2022/03/15 02:47:21;;;;;;;37.43;13.27;;;;;;;;;;5097240;28;20455;-72
2022/03/15 02:49:48;;;;;;;28.07;14.33;;;;;;;;;;5096355;28;20459;-73
2022/03/15 02:52:17;;;;;;;30.37;13.40;;;;;;;;;;5096302;28;20919;-73
2022/03/15 02:54:46;;;;;;;25.07;13.77;;;;;;;;;;5096201;28;20856;-73
2022/03/15 02:57:15;;;;;;;25.80;14.80;;;;;;;;;;5095234;28;20474;-73
2022/03/15 02:59:43;;;;;;;35.93;14.50;;;;;;;;;;5095518;28;20482;-73
2022/03/15 03:02:10;;;;;;;22.53;12.07;;;;;;;;;;5096374;28;20464;-74
2022/03/15 03:04:38;;;;;;;24.37;14.03;;;;;;;;;;5096441;28;20543;-74
2022/03/15 03:07:06;;;;;;;36.67;14.10;;;;;;;;;;5094662;28;20495;-73
2022/03/15 03:09:34;;;;;;;26.27;13.23;;;;;;;;;;5096360;28;20448;-74
2022/03/15 03:12:02;;;;;;;19.57;11.77;;;;;;;;;;5096717;28;20560;-73
2022/03/15 03:14:34;;;;;;;25.50;14.33;;;;;;;;;;5096507;28;20451;-74
2022/03/15 03:17:02;;;;;;;22.73;13.50;;;;;;;;;;5091327;28;20538;-74
2022/03/15 03:19:30;;;;;;;22.50;12.23;;;;;;;;;;5087829;28;20544;-74
2022/03/15 03:21:59;;;;;;;27.63;11.77;;;;;;;;;;5075535;28;20485;-74
2022/03/15 03:24:27;;;;;;;22.70;12.40;;;;;;;;;;5076257;28;20461;-74
2022/03/15 03:26:55;;;;;;;21.27;12.40;;;;;;;;;;5092779;28;20498;-74
2022/03/15 03:29:22;;;;;;;22.97;13.37;;;;;;;;;;5096187;28;20540;-74
2022/03/15 03:31:52;;;;;;;26.00;13.50;;;;;;;;;;5095238;28;20483;-74
2022/03/15 03:34:20;;;;;;;36.73;17.50;;;;;;;;;;5095779;28;20482;-73
2022/03/15 03:36:47;;;;;;;27.80;12.00;;;;;;;;;;5096353;28;20467;-73
2022/03/15 03:39:16;;;;;;;28.37;13.97;;;;;;;;;;5096258;28;20459;-73
2022/03/15 03:41:44;;;;;;;39.77;14.67;;;;;;;;;;5095871;28;20459;-73
2022/03/15 03:44:11;;;;;;;24.63;14.43;;;;;;;;;;5100274;28;20459;-74
2022/03/15 03:46:39;;;;;;;28.97;14.30;;;;;;;;;;5099828;28;20889;-74
2022/03/15 03:49:09;;;;;;;39.43;14.63;;;;;;;;;;5100155;28;20455;-73
2022/03/15 03:51:36;;;;;;;24.93;15.40;;;;;;;;;;5099606;28;20494;-73
2022/03/15 03:54:04;;;;;;;23.53;13.70;;;;;;;;;;5098035;28;20479;-74
2022/03/15 03:56:33;;;;;;;31.50;13.87;;;;;;;;;;5099226;28;20455;-74
2022/03/15 03:59:01;;;;;;;33.00;14.60;;;;;;;;;;5099970;28;20529;-74
2022/03/15 04:01:29;;;;;;;27.63;16.13;;;;;;;;;;5099890;28;20508;-74
2022/03/15 04:04:05;;;;;;;29.60;13.57;;;;;;;;;;5081383;28;20465;-73
2022/03/15 04:06:35;;;;;;;27.27;15.47;;;;;;;;;;5085215;28;20828;-73
2022/03/15 04:09:05;;;;;;;22.03;12.73;;;;;;;;;;5096384;28;20477;-74
2022/03/15 04:11:34;;;;;;;28.57;15.13;;;;;;;;;;5097474;28;20973;-74
2022/03/15 04:14:03;;;;;;;27.87;14.40;;;;;;;;;;5099332;28;20455;-73
2022/03/15 04:16:31;;;;;;;20.90;13.73;;;;;;;;;;5099422;28;20954;-74
2022/03/15 04:18:59;;;;;;;24.53;14.00;;;;;;;;;;5078981;28;20491;-74
2022/03/15 04:21:27;;;;;;;22.00;12.00;;;;;;;;;;5078882;28;20543;-74
2022/03/15 04:23:57;;;;;;;20.20;11.50;;;;;;;;;;5078538;28;20869;-74
2022/03/15 04:26:27;;;;;;;25.43;13.50;;;;;;;;;;5087002;28;20436;-75
2022/03/15 04:28:56;;;;;;;31.00;13.10;;;;;;;;;;5098891;28;20886;-74
2022/03/15 04:31:24;;;;;;;24.67;14.17;;;;;;;;;;5098834;28;20538;-73
2022/03/15 04:33:52;;;;;;;21.07;13.67;;;;;;;;;;5098924;28;20550;-74
2022/03/15 04:36:23;;;;;;;22.97;13.93;;;;;;;;;;5097606;28;20455;-74
2022/03/15 04:38:51;;;;;;;29.63;14.30;;;;;;;;;;5104070;28;20565;-74
2022/03/15 04:44:09;;;;;;;21.10;12.93;;;;;;;;;;5096530;28;20459;-73
2022/03/15 04:46:37;;;;;;;24.43;14.30;;;;;;;;;;5113869;27;20446;-73
2022/03/15 04:49:04;;;;;;;29.20;13.30;;;;;;;;;;5077990;28;21144;-73
2022/03/15 04:51:32;;;;;;;31.50;15.63;;;;;;;;;;5077408;28;20751;-73
2022/03/15 04:54:00;;;;;;;30.53;15.47;;;;;;;;;;5094331;28;20562;-72
2022/03/15 04:56:34;;;;;;;22.00;14.50;;;;;;;;;;5098506;28;20458;-74
2022/03/15 04:59:02;;;;;;;33.30;13.13;;;;;;;;;;5098297;28;20481;-73
2022/03/15 05:01:30;;;;;;;25.97;14.00;;;;;;;;;;5080397;28;20499;-74
2022/03/15 05:03:57;;;;;;;24.70;13.73;;;;;;;;;;5077644;28;20861;-74
2022/03/15 05:06:25;;;;;;;29.97;14.50;;;;;;;;;;5095312;28;20747;-73
2022/03/15 05:09:23;;;;;;;24.07;12.30;;;;;;;;;;5098090;28;20887;-74
2022/03/15 05:11:58;;;;;;;20.50;11.57;;;;;;;;;;5094979;28;20495;-74
2022/03/15 05:14:27;;;;;;;27.80;12.30;;;;;;;;;;5094442;28;20448;-72
2022/03/15 05:16:55;;;;;;;25.47;14.20;;;;;;;;;;5097714;28;20483;-74
2022/03/15 05:19:23;;;;;;;21.67;12.27;;;;;;;;;;5092505;28;20567;-74
2022/03/15 05:21:51;;;;;;;20.70;12.93;;;;;;;;;;5090926;28;20542;-74
2022/03/15 05:24:36;;;;;;;36.40;12.30;;;;;;;;;;5096171;28;20560;-73
2022/03/15 05:27:12;;;;;;;22.23;11.40;;;;;;;;;;5097746;28;20878;-73
2022/03/15 05:29:42;;;;;;;25.53;11.90;;;;;;;;;;5097481;28;20463;-74
2022/03/15 05:32:12;;;;;;;38.17;13.30;;;;;;;;;;5097579;28;20490;-74
2022/03/15 05:34:40;;;;;;;29.30;13.57;;;;;;;;;;5096306;28;20447;-74
2022/03/15 05:37:11;;;;;;;38.20;12.30;;;;;;;;;;5097228;28;20537;-73
2022/03/15 05:39:39;;;;;;;28.10;12.70;;;;;;;;;;5096767;28;20566;-74
2022/03/15 05:42:11;;;;;;;26.80;12.50;;;;;;;;;;5096598;28;20905;-73
2022/03/15 05:44:40;;;;;;;40.40;13.27;;;;;;;;;;5097301;28;20460;-73
2022/03/15 05:47:09;;;;;;;48.00;10.23;;;;;;;;;;5096890;28;20448;-73
2022/03/15 05:49:42;;;;;;;34.27;11.70;;;;;;;;;;5097451;28;20550;-74
2022/03/15 05:52:10;;;;;;;27.87;11.10;;;;;;;;;;5096867;28;20467;-74
2022/03/15 05:54:41;;;;;;;35.60;11.43;;;;;;;;;;5095833;28;20460;-73
2022/03/15 05:57:10;;;;;;;17.77;10.27;;;;;;;;;;5096060;28;21060;-72
2022/03/15 05:59:39;;;;;;;20.57;9.93;;;;;;;;;;5096601;28;20463;-72
2022/03/15 06:02:07;;;;;;;24.47;11.07;;;;;;;;;;5096381;28;20459;-73
2022/03/15 06:04:36;;;;;;;21.47;11.33;;;;;;;;;;5095852;28;20703;-73
2022/03/15 06:07:05;;;;;;;22.67;12.53;;;;;;;;;;5094824;28;20455;-73
2022/03/15 06:09:33;;;;;;;30.73;11.90;;;;;;;;;;5095114;28;20447;-73
2022/03/15 06:12:03;;;;;;;21.07;10.13;;;;;;;;;;5095541;28;20443;-73
2022/03/15 06:14:32;;;;;;;21.23;10.97;;;;;;;;;;5095514;28;20512;-73
2022/03/15 06:17:04;;;;;;;19.80;11.00;;;;;;;;;;5095618;28;20463;-73
2022/03/15 06:19:32;;;;;;;40.20;11.47;;;;;;;;;;5095018;28;20455;-74
2022/03/15 06:22:00;;;;;;;19.67;11.20;;;;;;;;;;5094888;28;20457;-73
2022/03/15 06:24:29;;;;;;;15.73;9.33;;;;;;;;;;5094382;28;20941;-73
2022/03/15 06:27:01;;;;;;;22.53;11.17;;;;;;;;;;5088551;28;21189;-74
2022/03/15 06:29:29;;;;;;;21.33;10.37;;;;;;;;;;5085729;28;20464;-73
2022/03/15 06:31:59;;;;;;;26.73;9.47;;;;;;;;;;5093827;28;20524;-73
2022/03/15 06:34:27;;;;;;;16.50;9.43;;;;;;;;;;5093704;28;20451;-73
2022/03/15 06:36:54;;;;;;;19.87;9.43;;;;;;;;;;5094375;28;20847;-73
2022/03/15 06:39:22;;;;;;;22.87;9.97;;;;;;;;;;5092577;28;20466;-73
2022/03/15 06:41:51;;;;;;;14.70;10.07;;;;;;;;;;5092135;28;20574;-73
2022/03/15 06:44:18;;;;;;;18.70;7.97;;;;;;;;;;5088500;28;20468;-73
2022/03/15 06:46:46;;;;;;;19.03;8.70;;;;;;;;;;5093429;28;20592;-73
2022/03/15 06:49:18;;;;;;;16.30;9.27;;;;;;;;;;5091766;28;20472;-73
2022/03/15 06:51:46;;;;;;;13.47;7.80;;;;;;;;;;5091744;28;20471;-73
2022/03/15 06:54:16;;;;;;;18.97;9.83;;;;;;;;;;5090736;28;20483;-73
2022/03/15 06:56:49;;;;;;;20.17;9.03;;;;;;;;;;5092636;28;20898;-73
2022/03/15 06:59:17;;;;;;;12.50;8.17;;;;;;;;;;5094176;28;20796;-73
2022/03/15 07:01:45;;;;;;;15.17;10.10;;;;;;;;;;5092873;28;20538;-74
2022/03/15 07:04:13;;;;;;;11.87;7.50;;;;;;;;;;5092702;28;20463;-74
2022/03/15 07:06:45;;;;;;;13.33;7.90;;;;;;;;;;5092334;28;20460;-73
2022/03/15 07:09:13;;;;;;;12.60;7.40;;;;;;;;;;5094389;28;20444;-73
2022/03/15 07:11:50;;;;;;;11.23;8.77;;;;;;;;;;5098366;27;20544;-74
2022/03/15 07:14:18;;;;;;;14.70;9.53;;;;;;;;;;5093917;28;20880;-73
2022/03/15 07:16:46;;;;;;;20.00;8.07;;;;;;;;;;5093184;28;20525;-73
2022/03/15 07:19:14;;;;;;;21.37;10.37;;;;;;;;;;5093730;28;20455;-73
2022/03/15 07:21:44;;;;;;;13.17;9.40;;;;;;;;;;5093933;28;20551;-73
2022/03/15 07:24:12;;;;;;;15.13;8.93;;;;;;;;;;5075279;28;20573;-72
2022/03/15 07:26:45;;;;;;;20.10;9.70;;;;;;;;;;5080354;28;20463;-73
2022/03/15 07:29:13;;;;;;;15.80;10.13;;;;;;;;;;5097576;28;20527;-73
2022/03/15 07:31:40;;;;;;;14.50;8.83;;;;;;;;;;5095906;28;20467;-73
2022/03/15 07:34:08;;;;;;;12.67;9.47;;;;;;;;;;5106774;28;20491;-73
2022/03/15 07:36:37;;;;;;;13.67;9.43;;;;;;;;;;5108366;28;20545;-73
2022/03/15 07:39:06;;;;;;;19.63;10.50;;;;;;;;;;5093753;28;20448;-73
2022/03/15 07:41:40;;;;;;;19.07;11.00;;;;;;;;;;5093382;28;20456;-74
2022/03/15 07:44:13;;;;;;;20.63;10.50;;;;;;;;;;5093509;28;20482;-74
2022/03/15 07:46:48;;;;;;;20.33;10.57;;;;;;;;;;5094923;28;20468;-73
2022/03/15 07:49:18;;;;;;;16.73;9.97;;;;;;;;;;5091948;28;20600;-74
2022/03/15 07:51:48;;;;;;;14.10;10.17;;;;;;;;;;5084037;28;20455;-72
2022/03/15 07:54:21;;;;;;;14.50;9.73;;;;;;;;;;5100772;28;20523;-73
2022/03/15 07:56:50;;;;;;;18.23;10.80;;;;;;;;;;5075032;28;20557;-71
2022/03/15 07:59:18;;;;;;;22.57;10.03;;;;;;;;;;5086193;28;20543;-72
2022/03/15 08:01:49;;;;;;;15.00;10.43;;;;;;;;;;5072645;28;20452;-72
2022/03/15 08:04:19;;;;;;;21.17;10.83;;;;;;;;;;5102864;28;20545;-73
2022/03/15 08:06:47;;;;;;;21.40;11.67;;;;;;;;;;5096368;28;20447;-74
2022/03/15 08:09:15;;;;;;;18.00;11.73;;;;;;;;;;5095387;28;20512;-73
2022/03/15 08:11:45;;;;;;;13.27;9.80;;;;;;;;;;5098039;28;20463;-73
2022/03/15 08:14:16;;;;;;;18.90;11.80;;;;;;;;;;5094344;28;20484;-72
2022/03/15 08:16:49;;;;;;;17.00;10.87;;;;;;;;;;5094975;28;20451;-72
2022/03/15 08:19:17;;;;;;;21.30;11.00;;;;;;;;;;5096108;28;20884;-72
2022/03/15 08:21:46;;;;;;;15.73;11.13;;;;;;;;;;5104895;28;20566;-72
2022/03/15 08:24:19;;;;;;;20.30;10.80;;;;;;;;;;5094859;28;20472;-72
2022/03/15 08:26:51;;;;;;;14.30;10.77;;;;;;;;;;5093935;28;20538;-72
2022/03/15 08:29:19;;;;;;;13.93;11.33;;;;;;;;;;5097507;27;20455;-73
2022/03/15 08:31:49;;;;;;;14.33;10.40;;;;;;;;;;5117587;27;20908;-72
2022/03/15 08:34:17;;;;;;;23.30;12.90;;;;;;;;;;5117036;27;20934;-71
2022/03/15 08:36:53;;;;;;;14.37;10.83;;;;;;;;;;5117231;27;20863;-73
2022/03/15 08:39:39;;;;;;;15.50;10.27;;;;;;;;;;5104075;28;20489;-73
2022/03/15 08:42:09;;;;;;;17.80;11.47;;;;;;;;;;5117921;27;20501;-72
2022/03/15 08:44:53;;;;;;;15.20;10.83;;;;;;;;;;5115445;27;20462;-73
2022/03/15 08:50:13;;;;;;;13.90;10.20;;;;;;;;;;5096518;28;20516;-73
2022/03/15 08:52:44;;;;;;;18.93;10.10;;;;;;;;;;5082723;28;20456;-72
2022/03/15 08:55:15;;;;;;;15.87;10.17;;;;;;;;;;5085478;28;20485;-73
2022/03/15 08:57:58;;;;;;;16.87;10.90;;;;;;;;;;5096728;28;20452;-72
2022/03/15 09:00:35;;;;;;;16.37;10.20;;;;;;;;;;5095458;28;20535;-73
2022/03/15 09:05:51;;;;;;;12.30;9.80;;;;;;;;;;5092350;28;20468;-72
2022/03/15 09:08:22;;;;;;;25.60;16.27;;;;;;;;;;5097092;28;20538;-73
2022/03/15 09:11:03;;;;;;;14.27;10.87;;;;;;;;;;5096988;28;21036;-73
2022/03/15 09:13:48;;;;;;;;;;;;;;;;;;;;;
2022/03/15 09:16:32;;;;;;;13.80;10.40;;;;;;;;;;5097264;28;20474;-73
2022/03/15 09:19:03;;;;;;;14.80;9.97;;;;;;;;;;5092968;28;20593;-73
2022/03/15 09:21:37;;;;;;;14.47;10.17;;;;;;;;;;5113301;27;20470;-72
2022/03/15 09:24:05;;;;;;;15.80;10.60;;;;;;;;;;5116679;27;20738;-72
2022/03/15 09:26:42;;;;;;;18.30;12.80;;;;;;;;;;5105017;28;20456;-72
2022/03/15 09:29:16;;;;;;;14.70;10.90;;;;;;;;;;5096203;28;20463;-71
2022/03/15 09:31:44;;;;;;;23.17;11.93;;;;;;;;;;5095506;28;20461;-71
2022/03/15 09:34:13;;;;;;;13.93;10.67;;;;;;;;;;5096686;28;20510;-71
2022/03/15 09:36:41;;;;;;;16.30;10.93;;;;;;;;;;5081440;28;21046;-71
2022/03/15 09:39:18;;;;;;;17.93;12.20;;;;;;;;;;5077060;28;20827;-71
2022/03/15 09:41:49;;;;;;;15.20;11.23;;;;;;;;;;5075297;28;20455;-71
2022/03/15 09:44:24;;;;;;;17.87;10.97;;;;;;;;;;5075563;28;20576;-72
2022/03/15 09:46:52;;;;;;;24.10;11.70;;;;;;;;;;5097926;28;20831;-71
2022/03/15 09:49:21;;;;;;;17.23;10.57;;;;;;;;;;5097080;28;20752;-71
2022/03/15 09:52:01;;;;;;;;;;;;;;;;;;;;;
2022/03/15 09:54:31;;;;;;;14.87;10.90;;;;;;;;;;5097483;28;20479;-71
2022/03/15 09:57:02;;;;;;;18.07;11.87;;;;;;;;;;5097510;28;20532;-72
2022/03/15 09:59:31;;;;;;;19.50;12.23;;;;;;;;;;5101123;28;20448;-71
2022/03/15 10:02:14;;;;;;;19.60;12.73;;;;;;;;;;5084057;28;20456;-71
2022/03/15 10:04:44;;;;;;;16.60;12.10;;;;;;;;;;5076164;28;20467;-73
2022/03/15 10:07:14;;;;;;;16.57;12.70;;;;;;;;;;5091726;28;20543;-72
2022/03/15 10:09:43;;;;;;;17.73;12.37;;;;;;;;;;5092652;28;20481;-71
2022/03/15 10:15:13;;;;;;;21.80;15.23;;;;;;;;;;5092848;28;20491;-73
2022/03/15 10:18:17;;;;;;;20.97;13.10;;;;;;;;;;5094248;28;20443;-74
2022/03/15 10:20:59;;;;;;;18.60;13.97;;;;;;;;;;5081770;28;20742;-72
2022/03/15 10:23:51;;;;;;;19.67;13.27;;;;;;;;;;5087713;28;20455;-72
2022/03/15 10:26:33;;;;;;;19.63;13.30;;;;;;;;;;5095963;28;20479;-72
2022/03/15 10:29:02;;;;;;;21.60;13.97;;;;;;;;;;5091556;28;20930;-72
2022/03/15 10:31:31;;;;;;;24.30;16.33;;;;;;;;;;5091784;28;20459;-72
2022/03/15 10:37:03;;;;;;;26.03;14.47;;;;;;;;;;5077484;28;20463;-71
2022/03/15 10:39:42;;;;;;;26.23;15.57;;;;;;;;;;5095808;28;20448;-72
2022/03/15 10:42:22;;;;;;;23.73;15.80;;;;;;;;;;5096361;28;20451;-72
2022/03/15 10:44:56;;;;;;;24.97;16.60;;;;;;;;;;5092402;28;20520;-72
2022/03/15 10:47:42;;;;;;;20.80;14.77;;;;;;;;;;5074607;28;20479;-71
2022/03/15 10:50:12;;;;;;;23.10;14.70;;;;;;;;;;5106089;27;20466;-72
2022/03/15 10:52:47;;;;;;;23.93;15.13;;;;;;;;;;5092657;28;20481;-71
2022/03/15 10:55:22;;;;;;;25.40;14.93;;;;;;;;;;5083821;28;20488;-71
2022/03/15 10:58:02;;;;;;;22.03;15.10;;;;;;;;;;5078111;28;20629;-72
2022/03/15 11:00:43;;;;;;;28.20;16.30;;;;;;;;;;5090561;28;20553;-71
2022/03/15 11:03:25;;;;;;;24.87;15.97;;;;;;;;;;5092887;28;20466;-71
2022/03/15 11:06:04;;;;;;;29.03;16.50;;;;;;;;;;5094750;28;20458;-72
2022/03/15 11:08:34;;;;;;;25.07;16.13;;;;;;;;;;5095500;28;20458;-70
2022/03/15 11:11:06;;;;;;;28.43;16.30;;;;;;;;;;5093768;28;20462;-71
2022/03/15 11:13:34;;;;;;;24.73;15.83;;;;;;;;;;5093516;28;20447;-73
2022/03/15 11:16:16;;;;;;;25.30;14.33;;;;;;;;;;5093042;28;20440;-73
2022/03/15 11:19:14;;;;;;;27.83;16.40;;;;;;;;;;5082203;28;20458;-71
2022/03/15 11:21:43;;;;;;;30.73;21.07;;;;;;;;;;5098432;28;21257;-72
2022/03/15 11:24:25;;;;;;;26.13;15.80;;;;;;;;;;5101550;28;20744;-72
2022/03/15 11:27:06;;;;;;;31.80;17.00;;;;;;;;;;5106363;28;20463;-73
2022/03/15 11:29:44;;;;;;;26.40;14.77;;;;;;;;;;5090629;28;21123;-73
2022/03/15 11:32:18;;;;;;;22.60;14.97;;;;;;;;;;5091409;28;20462;-73
2022/03/15 11:34:57;;;;;;;24.97;16.67;;;;;;;;;;5093416;28;20934;-73
2022/03/15 11:37:33;;;;;;;24.97;14.87;;;;;;;;;;5093184;28;20463;-73
2022/03/15 11:40:22;;;;;;;25.13;16.20;;;;;;;;;;5095340;28;20463;-72
2022/03/15 11:42:56;;;;;;;24.30;17.30;;;;;;;;;;5094427;28;20538;-72
2022/03/15 11:45:30;;;;;;;22.03;16.07;;;;;;;;;;5082735;28;20455;-71
2022/03/15 11:48:07;;;;;;;26.20;18.37;;;;;;;;;;5082874;28;20463;-72
2022/03/15 11:50:42;;;;;;;31.63;18.27;;;;;;;;;;5096244;28;20459;-71
2022/03/15 11:53:15;;;;;;;27.63;18.83;;;;;;;;;;5093959;28;20459;-71
2022/03/15 11:55:49;;;;;;;29.47;19.20;;;;;;;;;;5090975;28;20494;-72
2022/03/15 11:58:51;;;;;;;35.17;19.20;;;;;;;;;;5093277;28;20538;-73
2022/03/15 12:01:24;;;;;;;29.47;18.00;;;;;;;;;;5092522;28;20474;-72
2022/03/15 12:06:55;;;;;;;30.30;16.57;;;;;;;;;;5078519;28;20502;-71
2022/03/15 12:09:24;;;;;;;25.93;17.47;;;;;;;;;;5082480;28;20471;-71
2022/03/15 12:12:07;;;;;;;32.83;19.57;;;;;;;;;;5096616;28;20547;-71
2022/03/15 12:14:43;;;;;;;35.90;19.80;;;;;;;;;;5095641;28;20509;-72
2022/03/15 12:17:19;;;;;;;28.20;17.90;;;;;;;;;;5097143;28;20455;-70
2022/03/15 12:19:55;;;;;;;27.80;18.67;;;;;;;;;;5097846;28;20487;-73
2022/03/15 12:22:51;;;;;;;27.53;17.10;;;;;;;;;;5095809;28;20457;-72
2022/03/15 12:25:28;;;;;;;27.57;18.30;;;;;;;;;;5094937;28;21257;-72
2022/03/15 12:28:10;;;;;;;26.57;17.90;;;;;;;;;;5090184;28;20571;-72
2022/03/15 12:30:40;;;;;;;33.47;21.07;;;;;;;;;;5093942;28;20750;-73
2022/03/15 12:33:10;;;;;;;26.30;16.90;;;;;;;;;;5093992;28;20578;-73
2022/03/15 12:35:39;;;;;;;26.60;17.20;;;;;;;;;;5095292;28;20483;-73
2022/03/15 12:38:27;;;;;;;28.00;16.60;;;;;;;;;;5098090;28;20982;-74
2022/03/15 12:40:59;;;;;;;26.13;18.23;;;;;;;;;;5095642;28;20451;-74
2022/03/15 12:43:32;;;;;;;26.53;17.87;;;;;;;;;;5097017;28;20453;-72
2022/03/15 12:46:08;;;;;;;31.57;19.17;;;;;;;;;;5096869;28;20738;-73
2022/03/15 12:48:45;;;;;;;26.67;18.20;;;;;;;;;;5112403;28;20452;-72
2022/03/15 12:51:18;;;;;;;28.73;18.90;;;;;;;;;;5112214;28;20451;-73
2022/03/15 12:53:48;;;;;;;29.37;18.37;;;;;;;;;;5095995;28;20819;-73
2022/03/15 12:56:16;;;;;;;29.33;17.77;;;;;;;;;;5106744;28;20489;-72
2022/03/15 12:58:45;;;;;;;24.37;16.93;;;;;;;;;;5112788;28;20493;-72
2022/03/15 13:01:18;;;;;;;26.70;17.60;;;;;;;;;;5095856;28;21080;-73
2022/03/15 13:03:49;;;;;;;29.57;16.60;;;;;;;;;;5095976;28;20868;-73
2022/03/15 13:06:26;;;;;;;20.37;14.73;;;;;;;;;;5094266;28;20911;-74
2022/03/15 13:09:01;;;;;;;25.90;14.87;;;;;;;;;;5097154;28;20443;-73
2022/03/15 13:11:49;;;;;;;26.80;17.10;;;;;;;;;;5109444;28;20930;-73
2022/03/15 13:14:26;;;;;;;24.20;15.17;;;;;;;;;;5109544;28;20553;-73
2022/03/15 13:17:02;;;;;;;34.40;18.23;;;;;;;;;;5100997;28;21113;-73
2022/03/15 13:19:31;;;;;;;31.67;17.50;;;;;;;;;;5086241;28;20472;-73
2022/03/15 13:22:16;;;;;;;25.63;16.10;;;;;;;;;;5104393;28;20507;-73
2022/03/15 13:24:51;;;;;;;30.23;16.13;;;;;;;;;;5082249;28;20969;-74
2022/03/15 13:27:50;;;;;;;31.03;15.77;;;;;;;;;;5092488;28;20447;-73
2022/03/15 13:30:18;;;;;;;24.97;15.70;;;;;;;;;;5094955;28;20459;-74
2022/03/15 13:32:57;;;;;;;25.60;15.43;;;;;;;;;;5095811;28;20876;-72
2022/03/15 13:35:29;;;;;;;24.33;16.07;;;;;;;;;;5101184;28;20935;-72
2022/03/15 13:38:00;;;;;;;21.17;14.43;;;;;;;;;;5115740;28;20809;-72
2022/03/15 13:40:35;;;;;;;22.53;14.20;;;;;;;;;;5088593;28;20460;-73
2022/03/15 13:43:10;;;;;;;23.10;15.07;;;;;;;;;;5094664;28;20951;-73
2022/03/15 13:46:17;;;;;;;58.33;32.43;;;;;;;;;;5095718;28;20525;-71
2022/03/15 13:48:54;;;;;;;22.93;16.20;;;;;;;;;;5098033;28;20443;-72
2022/03/15 13:51:26;;;;;;;24.17;15.60;;;;;;;;;;5092038;28;20466;-72
2022/03/15 13:54:07;;;;;;;23.63;14.83;;;;;;;;;;5090486;28;20518;-72
2022/03/15 13:56:53;;;;;;;32.23;16.97;;;;;;;;;;5092100;28;20752;-72
2022/03/15 13:59:34;;;;;;;22.10;13.57;;;;;;;;;;5091365;28;21131;-73
2022/03/15 14:02:22;;;;;;;29.33;15.87;;;;;;;;;;5090528;28;20467;-73
2022/03/15 14:05:02;;;;;;;26.93;16.30;;;;;;;;;;5081265;28;20464;-73
2022/03/15 14:07:34;;;;;;;25.33;17.00;;;;;;;;;;5096762;28;20758;-73
2022/03/15 14:10:12;;;;;;;28.27;15.80;;;;;;;;;;5094879;28;20841;-74
2022/03/15 14:12:44;;;;;;;27.60;15.70;;;;;;;;;;5092980;28;20476;-73
2022/03/15 14:15:13;;;;;;;31.90;16.33;;;;;;;;;;5077873;28;20966;-73
2022/03/15 14:17:56;;;;;;;27.60;15.30;;;;;;;;;;5076343;28;20876;-73
2022/03/15 14:20:34;;;;;;;25.73;16.00;;;;;;;;;;5081322;28;21053;-73
2022/03/15 14:23:08;;;;;;;28.57;15.00;;;;;;;;;;5089664;28;20539;-72
2022/03/15 14:25:42;;;;;;;28.90;18.70;;;;;;;;;;5091497;28;20517;-73
2022/03/15 14:28:16;;;;;;;27.67;16.30;;;;;;;;;;5089317;28;20847;-72
2022/03/15 14:30:49;;;;;;;26.00;15.80;;;;;;;;;;5093260;28;20447;-72
2022/03/15 14:33:46;;;;;;;;;;;;;;;;;;;;;
2022/03/15 14:36:26;;;;;;;24.40;14.83;;;;;;;;;;5088992;28;20506;-74
2022/03/15 14:38:58;;;;;;;24.20;16.43;;;;;;;;;;5092356;28;20452;-71
2022/03/15 14:41:26;;;;;;;27.70;13.57;;;;;;;;;;5084119;28;20447;-72
2022/03/15 14:49:55;;;;;;;17.83;11.47;;;;;;;;;;5079721;28;20543;-72
2022/03/15 14:52:44;;;;;;;26.37;13.37;;;;;;;;;;5083558;28;20460;-73
2022/03/15 14:55:17;;;;;;;19.13;11.73;;;;;;;;;;5076022;28;20472;-73
2022/03/15 14:58:15;;;;;;;26.03;14.20;;;;;;;;;;5082147;28;20476;-72
2022/03/15 15:00:54;;;;;;;19.53;12.83;;;;;;;;;;5085932;28;20473;-73
2022/03/15 15:03:22;;;;;;;23.23;13.93;;;;;;;;;;5091079;28;20460;-72
2022/03/15 15:05:57;;;;;;;23.00;14.23;;;;;;;;;;5085529;28;20476;-73
2022/03/15 15:08:27;;;;;;;33.07;19.53;;;;;;;;;;5096344;28;20469;-72
2022/03/15 15:11:03;;;;;;;20.27;11.97;;;;;;;;;;5102170;27;20513;-73
2022/03/15 15:13:33;;;;;;;21.97;13.10;;;;;;;;;;5072658;28;20460;-72